sensor_id;sensor_type;location;lat;lon;timestamp;P1;durP1;ratioP1;P2;durP2;ratioP2
74614;SDS011;63121;51.458;-0.110;2023-05-24T00:02:20;10.23;;;2.05;;
74614;SDS011;63121;51.458;-0.110;2023-05-24T00:04:47;7.90;;;1.80;;
74614;SDS011;63121;51.458;-0.110;2023-05-24T00:07:13;10.70;;;2.00;;
74614;SDS011;63121;51.458;-0.110;2023-05-24T00:09:40;9.60;;;1.52;;
74614;SDS011;63121;51.458;-0.110;2023-05-24T00:12:06;8.18;;;2.17;;
74614;SDS011;63121;51.458;-0.110;2023-05-24T00:14:31;7.60;;;1.73;;
74614;SDS011;63121;51.458;-0.110;2023-05-24T00:16:57;8.98;;;1.70;;
74614;SDS011;63121;51.458;-0.110;2023-05-24T00:19:22;7.75;;;1.50;;
74614;SDS011;63121;51.458;-0.110;2023-05-24T00:21:48;6.22;;;1.70;;
74614;SDS011;63121;51.458;-0.110;2023-05-24T00:24:13;6.53;;;1.80;;
74614;SDS011;63121;51.458;-0.110;2023-05-24T00:26:39;8.35;;;1.60;;
74614;SDS011;63121;51.458;-0.110;2023-05-24T00:29:04;8.25;;;1.98;;
74614;SDS011;63121;51.458;-0.110;2023-05-24T00:31:30;6.40;;;1.63;;
74614;SDS011;63121;51.458;-0.110;2023-05-24T00:33:55;5.40;;;1.45;;
74614;SDS011;63121;51.458;-0.110;2023-05-24T00:36:21;5.90;;;1.50;;
74614;SDS011;63121;51.458;-0.110;2023-05-24T00:38:46;7.90;;;1.70;;
74614;SDS011;63121;51.458;-0.110;2023-05-24T00:41:12;8.13;;;1.67;;
74614;SDS011;63121;51.458;-0.110;2023-05-24T00:43:37;6.93;;;1.60;;
74614;SDS011;63121;51.458;-0.110;2023-05-24T00:46:16;5.40;;;1.40;;
74614;SDS011;63121;51.458;-0.110;2023-05-24T00:48:44;12.43;;;1.95;;
74614;SDS011;63121;51.458;-0.110;2023-05-24T00:51:10;8.48;;;1.88;;
74614;SDS011;63121;51.458;-0.110;2023-05-24T00:53:38;8.63;;;1.80;;
74614;SDS011;63121;51.458;-0.110;2023-05-24T00:56:05;6.75;;;1.50;;
74614;SDS011;63121;51.458;-0.110;2023-05-24T00:58:31;9.50;;;1.50;;
74614;SDS011;63121;51.458;-0.110;2023-05-24T01:01:00;9.30;;;1.88;;
74614;SDS011;63121;51.458;-0.110;2023-05-24T01:03:26;4.72;;;1.42;;
74614;SDS011;63121;51.458;-0.110;2023-05-24T01:06:00;8.75;;;1.90;;
74614;SDS011;63121;51.458;-0.110;2023-05-24T01:16:49;6.10;;;1.50;;
74614;SDS011;63121;51.458;-0.110;2023-05-24T01:22:28;8.35;;;1.63;;
74614;SDS011;63121;51.458;-0.110;2023-05-24T01:25:02;9.57;;;1.80;;
74614;SDS011;63121;51.458;-0.110;2023-05-24T01:27:29;6.10;;;1.48;;
74614;SDS011;63121;51.458;-0.110;2023-05-24T01:29:58;7.55;;;1.65;;
74614;SDS011;63121;51.458;-0.110;2023-05-24T01:32:24;11.27;;;1.60;;
74614;SDS011;63121;51.458;-0.110;2023-05-24T01:34:49;8.13;;;1.60;;
74614;SDS011;63121;51.458;-0.110;2023-05-24T01:37:15;6.47;;;1.47;;
74614;SDS011;63121;51.458;-0.110;2023-05-24T01:39:40;5.88;;;1.50;;
74614;SDS011;63121;51.458;-0.110;2023-05-24T01:45:16;9.23;;;1.50;;
74614;SDS011;63121;51.458;-0.110;2023-05-24T01:48:09;7.05;;;1.60;;
74614;SDS011;63121;51.458;-0.110;2023-05-24T01:50:47;8.60;;;1.98;;
74614;SDS011;63121;51.458;-0.110;2023-05-24T01:53:17;6.70;;;1.40;;
74614;SDS011;63121;51.458;-0.110;2023-05-24T01:55:43;7.18;;;1.67;;
74614;SDS011;63121;51.458;-0.110;2023-05-24T01:58:15;6.25;;;1.40;;
74614;SDS011;63121;51.458;-0.110;2023-05-24T02:00:43;7.53;;;1.65;;
74614;SDS011;63121;51.458;-0.110;2023-05-24T02:03:09;6.38;;;1.55;;
74614;SDS011;63121;51.458;-0.110;2023-05-24T02:05:38;6.95;;;1.67;;
74614;SDS011;63121;51.458;-0.110;2023-05-24T02:08:03;5.63;;;1.20;;
74614;SDS011;63121;51.458;-0.110;2023-05-24T02:10:29;9.18;;;1.80;;
74614;SDS011;63121;51.458;-0.110;2023-05-24T02:12:54;7.07;;;1.60;;
74614;SDS011;63121;51.458;-0.110;2023-05-24T02:15:19;9.30;;;1.80;;
74614;SDS011;63121;51.458;-0.110;2023-05-24T02:17:45;8.18;;;1.50;;
74614;SDS011;63121;51.458;-0.110;2023-05-24T02:20:12;5.05;;;1.60;;
74614;SDS011;63121;51.458;-0.110;2023-05-24T02:22:37;9.13;;;1.60;;
74614;SDS011;63121;51.458;-0.110;2023-05-24T02:25:02;6.22;;;1.40;;
74614;SDS011;63121;51.458;-0.110;2023-05-24T02:27:28;5.68;;;1.55;;
74614;SDS011;63121;51.458;-0.110;2023-05-24T02:29:54;6.13;;;1.50;;
74614;SDS011;63121;51.458;-0.110;2023-05-24T02:32:19;8.20;;;1.85;;
74614;SDS011;63121;51.458;-0.110;2023-05-24T02:34:45;9.25;;;1.80;;
74614;SDS011;63121;51.458;-0.110;2023-05-24T02:37:10;6.55;;;1.67;;
74614;SDS011;63121;51.458;-0.110;2023-05-24T02:39:39;6.63;;;1.48;;
74614;SDS011;63121;51.458;-0.110;2023-05-24T02:42:06;7.22;;;1.52;;
74614;SDS011;63121;51.458;-0.110;2023-05-24T02:44:33;8.38;;;2.00;;
74614;SDS011;63121;51.458;-0.110;2023-05-24T02:46:58;6.93;;;1.80;;
74614;SDS011;63121;51.458;-0.110;2023-05-24T02:49:24;5.37;;;1.53;;
74614;SDS011;63121;51.458;-0.110;2023-05-24T02:51:49;6.53;;;1.50;;
74614;SDS011;63121;51.458;-0.110;2023-05-24T02:54:15;5.53;;;1.60;;
74614;SDS011;63121;51.458;-0.110;2023-05-24T02:56:41;8.15;;;1.80;;
74614;SDS011;63121;51.458;-0.110;2023-05-24T02:59:07;9.65;;;1.70;;
74614;SDS011;63121;51.458;-0.110;2023-05-24T03:01:32;9.27;;;2.03;;
74614;SDS011;63121;51.458;-0.110;2023-05-24T03:03:58;8.20;;;2.10;;
74614;SDS011;63121;51.458;-0.110;2023-05-24T03:06:23;11.98;;;2.35;;
74614;SDS011;63121;51.458;-0.110;2023-05-24T03:08:49;7.28;;;1.98;;
74614;SDS011;63121;51.458;-0.110;2023-05-24T03:11:15;7.60;;;1.92;;
74614;SDS011;63121;51.458;-0.110;2023-05-24T03:13:40;7.45;;;1.60;;
74614;SDS011;63121;51.458;-0.110;2023-05-24T03:16:06;6.75;;;1.75;;
74614;SDS011;63121;51.458;-0.110;2023-05-24T03:18:31;6.78;;;1.70;;
74614;SDS011;63121;51.458;-0.110;2023-05-24T03:20:57;8.75;;;1.80;;
74614;SDS011;63121;51.458;-0.110;2023-05-24T03:23:22;8.15;;;1.55;;
74614;SDS011;63121;51.458;-0.110;2023-05-24T03:25:48;10.93;;;2.23;;
74614;SDS011;63121;51.458;-0.110;2023-05-24T03:28:13;9.48;;;1.80;;
74614;SDS011;63121;51.458;-0.110;2023-05-24T03:30:39;6.57;;;1.70;;
74614;SDS011;63121;51.458;-0.110;2023-05-24T03:33:05;8.10;;;1.95;;
74614;SDS011;63121;51.458;-0.110;2023-05-24T03:35:30;7.30;;;1.70;;
74614;SDS011;63121;51.458;-0.110;2023-05-24T03:37:55;7.87;;;2.07;;
74614;SDS011;63121;51.458;-0.110;2023-05-24T03:40:21;6.90;;;1.80;;
74614;SDS011;63121;51.458;-0.110;2023-05-24T03:42:46;7.97;;;2.03;;
74614;SDS011;63121;51.458;-0.110;2023-05-24T03:45:11;8.02;;;2.20;;
74614;SDS011;63121;51.458;-0.110;2023-05-24T03:47:37;7.38;;;1.77;;
74614;SDS011;63121;51.458;-0.110;2023-05-24T03:50:02;9.97;;;2.30;;
74614;SDS011;63121;51.458;-0.110;2023-05-24T03:52:28;11.60;;;2.22;;
74614;SDS011;63121;51.458;-0.110;2023-05-24T03:54:53;9.88;;;1.98;;
74614;SDS011;63121;51.458;-0.110;2023-05-24T03:57:18;9.52;;;1.80;;
74614;SDS011;63121;51.458;-0.110;2023-05-24T03:59:44;9.02;;;2.05;;
74614;SDS011;63121;51.458;-0.110;2023-05-24T04:02:09;12.87;;;2.40;;
74614;SDS011;63121;51.458;-0.110;2023-05-24T04:04:35;7.13;;;2.00;;
74614;SDS011;63121;51.458;-0.110;2023-05-24T04:07:01;12.70;;;2.60;;
74614;SDS011;63121;51.458;-0.110;2023-05-24T04:09:27;9.95;;;2.20;;
74614;SDS011;63121;51.458;-0.110;2023-05-24T04:11:52;8.95;;;2.22;;
74614;SDS011;63121;51.458;-0.110;2023-05-24T04:14:18;11.77;;;2.10;;
74614;SDS011;63121;51.458;-0.110;2023-05-24T04:16:43;9.70;;;1.90;;
74614;SDS011;63121;51.458;-0.110;2023-05-24T04:19:09;12.15;;;2.40;;
74614;SDS011;63121;51.458;-0.110;2023-05-24T04:21:35;8.32;;;2.30;;
74614;SDS011;63121;51.458;-0.110;2023-05-24T04:24:01;12.38;;;2.97;;
74614;SDS011;63121;51.458;-0.110;2023-05-24T04:26:27;10.20;;;2.25;;
74614;SDS011;63121;51.458;-0.110;2023-05-24T04:28:53;12.57;;;2.38;;
74614;SDS011;63121;51.458;-0.110;2023-05-24T04:31:19;12.35;;;2.80;;
74614;SDS011;63121;51.458;-0.110;2023-05-24T04:33:45;14.52;;;3.13;;
74614;SDS011;63121;51.458;-0.110;2023-05-24T04:36:12;10.07;;;2.13;;
74614;SDS011;63121;51.458;-0.110;2023-05-24T04:38:38;9.18;;;2.53;;
74614;SDS011;63121;51.458;-0.110;2023-05-24T04:43:31;8.25;;;2.20;;
74614;SDS011;63121;51.458;-0.110;2023-05-24T04:45:57;9.05;;;2.28;;
74614;SDS011;63121;51.458;-0.110;2023-05-24T04:48:24;9.75;;;2.30;;
74614;SDS011;63121;51.458;-0.110;2023-05-24T04:50:50;14.10;;;2.70;;
74614;SDS011;63121;51.458;-0.110;2023-05-24T04:55:41;11.45;;;2.58;;
74614;SDS011;63121;51.458;-0.110;2023-05-24T04:58:07;7.80;;;2.37;;
74614;SDS011;63121;51.458;-0.110;2023-05-24T05:00:32;13.55;;;2.83;;
74614;SDS011;63121;51.458;-0.110;2023-05-24T05:02:58;10.88;;;2.97;;
74614;SDS011;63121;51.458;-0.110;2023-05-24T05:05:23;13.52;;;2.95;;
74614;SDS011;63121;51.458;-0.110;2023-05-24T05:07:48;9.00;;;2.73;;
74614;SDS011;63121;51.458;-0.110;2023-05-24T05:10:14;13.00;;;2.97;;
74614;SDS011;63121;51.458;-0.110;2023-05-24T05:12:39;9.30;;;2.80;;
74614;SDS011;63121;51.458;-0.110;2023-05-24T05:15:05;12.65;;;3.38;;
74614;SDS011;63121;51.458;-0.110;2023-05-24T05:17:31;12.18;;;3.25;;
74614;SDS011;63121;51.458;-0.110;2023-05-24T05:19:57;12.43;;;2.55;;
74614;SDS011;63121;51.458;-0.110;2023-05-24T05:22:22;12.75;;;3.58;;
74614;SDS011;63121;51.458;-0.110;2023-05-24T05:24:47;8.30;;;2.92;;
74614;SDS011;63121;51.458;-0.110;2023-05-24T05:27:13;13.02;;;3.05;;
74614;SDS011;63121;51.458;-0.110;2023-05-24T05:29:38;11.77;;;3.30;;
74614;SDS011;63121;51.458;-0.110;2023-05-24T05:32:04;9.38;;;2.83;;
74614;SDS011;63121;51.458;-0.110;2023-05-24T05:34:29;11.65;;;2.78;;
74614;SDS011;63121;51.458;-0.110;2023-05-24T05:36:55;9.63;;;2.93;;
74614;SDS011;63121;51.458;-0.110;2023-05-24T05:39:20;11.53;;;2.90;;
74614;SDS011;63121;51.458;-0.110;2023-05-24T05:41:45;11.17;;;3.17;;
74614;SDS011;63121;51.458;-0.110;2023-05-24T05:44:11;10.80;;;2.75;;
74614;SDS011;63121;51.458;-0.110;2023-05-24T05:46:37;12.07;;;3.30;;
74614;SDS011;63121;51.458;-0.110;2023-05-24T05:49:03;12.55;;;3.05;;
74614;SDS011;63121;51.458;-0.110;2023-05-24T05:51:30;14.93;;;3.50;;
74614;SDS011;63121;51.458;-0.110;2023-05-24T05:53:55;10.40;;;3.17;;
74614;SDS011;63121;51.458;-0.110;2023-05-24T05:56:21;10.60;;;3.00;;
74614;SDS011;63121;51.458;-0.110;2023-05-24T05:58:46;10.40;;;2.85;;
74614;SDS011;63121;51.458;-0.110;2023-05-24T06:01:12;12.07;;;2.80;;
74614;SDS011;63121;51.458;-0.110;2023-05-24T06:03:38;8.52;;;2.58;;
74614;SDS011;63121;51.458;-0.110;2023-05-24T06:06:03;14.38;;;3.38;;
74614;SDS011;63121;51.458;-0.110;2023-05-24T06:08:29;13.50;;;2.92;;
74614;SDS011;63121;51.458;-0.110;2023-05-24T06:10:59;14.57;;;3.20;;
74614;SDS011;63121;51.458;-0.110;2023-05-24T06:13:27;14.68;;;2.88;;
74614;SDS011;63121;51.458;-0.110;2023-05-24T06:15:53;14.05;;;2.80;;
74614;SDS011;63121;51.458;-0.110;2023-05-24T06:18:19;14.40;;;3.92;;
74614;SDS011;63121;51.458;-0.110;2023-05-24T06:20:45;12.50;;;3.08;;
74614;SDS011;63121;51.458;-0.110;2023-05-24T06:23:10;18.15;;;3.75;;
74614;SDS011;63121;51.458;-0.110;2023-05-24T06:25:36;15.40;;;3.67;;
74614;SDS011;63121;51.458;-0.110;2023-05-24T06:28:04;14.35;;;3.25;;
74614;SDS011;63121;51.458;-0.110;2023-05-24T06:30:30;13.80;;;3.65;;
74614;SDS011;63121;51.458;-0.110;2023-05-24T06:32:57;13.65;;;3.22;;
74614;SDS011;63121;51.458;-0.110;2023-05-24T06:35:23;18.95;;;3.28;;
74614;SDS011;63121;51.458;-0.110;2023-05-24T06:37:48;11.80;;;3.00;;
74614;SDS011;63121;51.458;-0.110;2023-05-24T06:40:14;16.75;;;3.45;;
74614;SDS011;63121;51.458;-0.110;2023-05-24T06:42:40;11.20;;;2.65;;
74614;SDS011;63121;51.458;-0.110;2023-05-24T06:45:05;11.52;;;2.80;;
74614;SDS011;63121;51.458;-0.110;2023-05-24T06:47:32;12.40;;;3.38;;
74614;SDS011;63121;51.458;-0.110;2023-05-24T06:49:57;13.27;;;3.40;;
74614;SDS011;63121;51.458;-0.110;2023-05-24T06:52:22;12.93;;;3.15;;
74614;SDS011;63121;51.458;-0.110;2023-05-24T06:54:48;11.90;;;2.70;;
74614;SDS011;63121;51.458;-0.110;2023-05-24T06:57:14;11.27;;;2.50;;
74614;SDS011;63121;51.458;-0.110;2023-05-24T06:59:39;12.50;;;3.10;;
74614;SDS011;63121;51.458;-0.110;2023-05-24T07:02:05;12.23;;;2.95;;
74614;SDS011;63121;51.458;-0.110;2023-05-24T07:04:30;12.13;;;2.58;;
74614;SDS011;63121;51.458;-0.110;2023-05-24T07:06:56;10.70;;;2.80;;
74614;SDS011;63121;51.458;-0.110;2023-05-24T07:09:22;12.57;;;2.85;;
74614;SDS011;63121;51.458;-0.110;2023-05-24T07:11:47;9.85;;;2.38;;
74614;SDS011;63121;51.458;-0.110;2023-05-24T07:14:13;12.98;;;2.92;;
74614;SDS011;63121;51.458;-0.110;2023-05-24T07:16:39;13.10;;;3.47;;
74614;SDS011;63121;51.458;-0.110;2023-05-24T07:19:04;13.30;;;2.70;;
74614;SDS011;63121;51.458;-0.110;2023-05-24T07:21:30;11.73;;;2.90;;
74614;SDS011;63121;51.458;-0.110;2023-05-24T07:23:55;11.43;;;2.70;;
74614;SDS011;63121;51.458;-0.110;2023-05-24T07:26:21;10.35;;;2.75;;
74614;SDS011;63121;51.458;-0.110;2023-05-24T07:28:47;11.50;;;3.28;;
74614;SDS011;63121;51.458;-0.110;2023-05-24T07:31:13;10.63;;;2.63;;
74614;SDS011;63121;51.458;-0.110;2023-05-24T07:33:38;11.27;;;2.67;;
74614;SDS011;63121;51.458;-0.110;2023-05-24T07:36:04;10.60;;;2.70;;
74614;SDS011;63121;51.458;-0.110;2023-05-24T07:38:31;11.90;;;2.80;;
74614;SDS011;63121;51.458;-0.110;2023-05-24T07:40:58;15.00;;;2.88;;
74614;SDS011;63121;51.458;-0.110;2023-05-24T07:43:24;10.95;;;2.92;;
74614;SDS011;63121;51.458;-0.110;2023-05-24T07:45:51;10.45;;;2.88;;
74614;SDS011;63121;51.458;-0.110;2023-05-24T07:48:17;13.10;;;2.72;;
74614;SDS011;63121;51.458;-0.110;2023-05-24T07:53:12;11.85;;;3.03;;
74614;SDS011;63121;51.458;-0.110;2023-05-24T07:55:40;11.63;;;2.88;;
74614;SDS011;63121;51.458;-0.110;2023-05-24T07:58:06;12.98;;;2.83;;
74614;SDS011;63121;51.458;-0.110;2023-05-24T08:00:31;12.18;;;2.83;;
74614;SDS011;63121;51.458;-0.110;2023-05-24T08:02:58;12.93;;;2.53;;
74614;SDS011;63121;51.458;-0.110;2023-05-24T08:05:25;12.45;;;2.78;;
74614;SDS011;63121;51.458;-0.110;2023-05-24T08:07:51;11.75;;;2.72;;
74614;SDS011;63121;51.458;-0.110;2023-05-24T08:10:17;10.50;;;2.50;;
74614;SDS011;63121;51.458;-0.110;2023-05-24T08:12:42;10.00;;;2.78;;
74614;SDS011;63121;51.458;-0.110;2023-05-24T08:15:08;11.02;;;2.40;;
74614;SDS011;63121;51.458;-0.110;2023-05-24T08:17:34;12.38;;;2.45;;
74614;SDS011;63121;51.458;-0.110;2023-05-24T08:19:59;13.55;;;2.65;;
74614;SDS011;63121;51.458;-0.110;2023-05-24T08:22:25;13.77;;;2.67;;
74614;SDS011;63121;51.458;-0.110;2023-05-24T08:24:50;13.10;;;2.70;;
74614;SDS011;63121;51.458;-0.110;2023-05-24T08:27:16;10.75;;;2.72;;
74614;SDS011;63121;51.458;-0.110;2023-05-24T08:29:41;12.70;;;2.40;;
74614;SDS011;63121;51.458;-0.110;2023-05-24T08:32:07;11.95;;;2.42;;
74614;SDS011;63121;51.458;-0.110;2023-05-24T08:34:35;10.93;;;2.55;;
74614;SDS011;63121;51.458;-0.110;2023-05-24T08:37:01;12.13;;;2.55;;
74614;SDS011;63121;51.458;-0.110;2023-05-24T08:39:27;11.35;;;2.60;;
74614;SDS011;63121;51.458;-0.110;2023-05-24T08:41:53;13.48;;;2.47;;
74614;SDS011;63121;51.458;-0.110;2023-05-24T08:44:19;9.25;;;2.35;;
74614;SDS011;63121;51.458;-0.110;2023-05-24T08:46:46;12.60;;;3.15;;
74614;SDS011;63121;51.458;-0.110;2023-05-24T08:49:13;11.35;;;2.53;;
74614;SDS011;63121;51.458;-0.110;2023-05-24T08:51:39;9.45;;;2.47;;
74614;SDS011;63121;51.458;-0.110;2023-05-24T08:54:04;12.50;;;2.47;;
74614;SDS011;63121;51.458;-0.110;2023-05-24T08:56:31;9.93;;;2.40;;
74614;SDS011;63121;51.458;-0.110;2023-05-24T08:58:58;12.52;;;2.65;;
74614;SDS011;63121;51.458;-0.110;2023-05-24T09:01:23;12.85;;;2.97;;
74614;SDS011;63121;51.458;-0.110;2023-05-24T09:03:50;15.75;;;3.35;;
74614;SDS011;63121;51.458;-0.110;2023-05-24T09:06:16;12.05;;;2.90;;
74614;SDS011;63121;51.458;-0.110;2023-05-24T09:11:09;11.70;;;2.28;;
74614;SDS011;63121;51.458;-0.110;2023-05-24T09:13:35;13.70;;;2.95;;
74614;SDS011;63121;51.458;-0.110;2023-05-24T09:16:01;10.60;;;2.65;;
74614;SDS011;63121;51.458;-0.110;2023-05-24T09:18:27;12.48;;;3.03;;
74614;SDS011;63121;51.458;-0.110;2023-05-24T09:20:53;10.68;;;2.83;;
74614;SDS011;63121;51.458;-0.110;2023-05-24T09:23:18;11.07;;;2.65;;
74614;SDS011;63121;51.458;-0.110;2023-05-24T09:25:44;11.07;;;2.42;;
74614;SDS011;63121;51.458;-0.110;2023-05-24T09:28:15;13.45;;;2.55;;
74614;SDS011;63121;51.458;-0.110;2023-05-24T09:30:42;10.90;;;2.38;;
74614;SDS011;63121;51.458;-0.110;2023-05-24T09:33:08;14.07;;;2.60;;
74614;SDS011;63121;51.458;-0.110;2023-05-24T09:35:34;9.70;;;2.42;;
74614;SDS011;63121;51.458;-0.110;2023-05-24T09:38:01;10.32;;;2.70;;
74614;SDS011;63121;51.458;-0.110;2023-05-24T09:40:28;12.85;;;2.58;;
74614;SDS011;63121;51.458;-0.110;2023-05-24T09:43:06;12.88;;;2.90;;
74614;SDS011;63121;51.458;-0.110;2023-05-24T09:45:51;11.07;;;2.60;;
74614;SDS011;63121;51.458;-0.110;2023-05-24T09:48:19;10.77;;;2.63;;
74614;SDS011;63121;51.458;-0.110;2023-05-24T09:50:58;9.25;;;2.60;;
74614;SDS011;63121;51.458;-0.110;2023-05-24T09:53:29;8.73;;;2.60;;
74614;SDS011;63121;51.458;-0.110;2023-05-24T09:55:57;8.38;;;2.47;;
74614;SDS011;63121;51.458;-0.110;2023-05-24T09:58:28;12.95;;;2.55;;
74614;SDS011;63121;51.458;-0.110;2023-05-24T10:01:08;16.08;;;3.80;;
74614;SDS011;63121;51.458;-0.110;2023-05-24T10:03:55;13.18;;;2.92;;
74614;SDS011;63121;51.458;-0.110;2023-05-24T10:06:22;14.05;;;3.83;;
74614;SDS011;63121;51.458;-0.110;2023-05-24T10:08:49;9.05;;;2.33;;
74614;SDS011;63121;51.458;-0.110;2023-05-24T10:11:15;9.82;;;2.53;;
74614;SDS011;63121;51.458;-0.110;2023-05-24T10:13:41;7.78;;;2.30;;
74614;SDS011;63121;51.458;-0.110;2023-05-24T10:16:07;11.50;;;3.35;;
74614;SDS011;63121;51.458;-0.110;2023-05-24T10:18:33;10.65;;;2.80;;
74614;SDS011;63121;51.458;-0.110;2023-05-24T10:20:59;15.20;;;3.75;;
74614;SDS011;63121;51.458;-0.110;2023-05-24T10:23:28;9.07;;;2.30;;
74614;SDS011;63121;51.458;-0.110;2023-05-24T10:25:55;7.10;;;1.92;;
74614;SDS011;63121;51.458;-0.110;2023-05-24T10:28:27;9.55;;;2.13;;
74614;SDS011;63121;51.458;-0.110;2023-05-24T10:31:02;9.80;;;2.10;;
74614;SDS011;63121;51.458;-0.110;2023-05-24T10:33:35;8.35;;;2.45;;
74614;SDS011;63121;51.458;-0.110;2023-05-24T10:36:02;10.95;;;2.72;;
74614;SDS011;63121;51.458;-0.110;2023-05-24T10:38:31;9.00;;;2.50;;
74614;SDS011;63121;51.458;-0.110;2023-05-24T10:40:56;11.43;;;2.38;;
74614;SDS011;63121;51.458;-0.110;2023-05-24T10:43:22;11.27;;;2.38;;
74614;SDS011;63121;51.458;-0.110;2023-05-24T10:45:48;7.47;;;2.40;;
74614;SDS011;63121;51.458;-0.110;2023-05-24T10:50:40;10.77;;;2.67;;
74614;SDS011;63121;51.458;-0.110;2023-05-24T10:53:12;8.35;;;2.22;;
74614;SDS011;63121;51.458;-0.110;2023-05-24T10:55:52;11.10;;;2.38;;
74614;SDS011;63121;51.458;-0.110;2023-05-24T11:00:56;8.93;;;2.22;;
74614;SDS011;63121;51.458;-0.110;2023-05-24T11:03:22;8.40;;;2.58;;
74614;SDS011;63121;51.458;-0.110;2023-05-24T11:08:21;9.68;;;2.70;;
74614;SDS011;63121;51.458;-0.110;2023-05-24T11:16:14;10.57;;;2.47;;
74614;SDS011;63121;51.458;-0.110;2023-05-24T11:19:09;11.65;;;3.45;;
74614;SDS011;63121;51.458;-0.110;2023-05-24T11:21:37;8.48;;;2.17;;
74614;SDS011;63121;51.458;-0.110;2023-05-24T11:24:04;15.85;;;3.08;;
74614;SDS011;63121;51.458;-0.110;2023-05-24T11:26:30;9.50;;;2.40;;
74614;SDS011;63121;51.458;-0.110;2023-05-24T11:28:56;9.70;;;2.63;;
74614;SDS011;63121;51.458;-0.110;2023-05-24T11:31:27;8.60;;;2.17;;
74614;SDS011;63121;51.458;-0.110;2023-05-24T11:33:52;9.98;;;2.97;;
74614;SDS011;63121;51.458;-0.110;2023-05-24T11:36:19;11.32;;;2.50;;
74614;SDS011;63121;51.458;-0.110;2023-05-24T11:38:47;10.82;;;2.47;;
74614;SDS011;63121;51.458;-0.110;2023-05-24T11:41:13;8.82;;;2.40;;
74614;SDS011;63121;51.458;-0.110;2023-05-24T11:43:39;8.10;;;2.33;;
74614;SDS011;63121;51.458;-0.110;2023-05-24T11:46:05;10.85;;;2.20;;
74614;SDS011;63121;51.458;-0.110;2023-05-24T11:48:31;9.15;;;2.55;;
74614;SDS011;63121;51.458;-0.110;2023-05-24T11:50:57;9.52;;;2.58;;
74614;SDS011;63121;51.458;-0.110;2023-05-24T11:55:49;9.03;;;2.50;;
74614;SDS011;63121;51.458;-0.110;2023-05-24T12:00:43;10.20;;;2.63;;
74614;SDS011;63121;51.458;-0.110;2023-05-24T12:03:11;10.77;;;2.90;;
74614;SDS011;63121;51.458;-0.110;2023-05-24T12:05:37;9.07;;;2.90;;
74614;SDS011;63121;51.458;-0.110;2023-05-24T12:08:06;8.60;;;2.40;;
74614;SDS011;63121;51.458;-0.110;2023-05-24T12:10:36;9.32;;;2.42;;
74614;SDS011;63121;51.458;-0.110;2023-05-24T12:13:03;10.73;;;2.70;;
74614;SDS011;63121;51.458;-0.110;2023-05-24T12:15:29;7.53;;;2.13;;
74614;SDS011;63121;51.458;-0.110;2023-05-24T12:17:55;10.95;;;2.80;;
74614;SDS011;63121;51.458;-0.110;2023-05-24T12:20:22;9.75;;;2.65;;
74614;SDS011;63121;51.458;-0.110;2023-05-24T12:22:48;10.98;;;2.90;;
74614;SDS011;63121;51.458;-0.110;2023-05-24T12:25:18;9.55;;;2.67;;
74614;SDS011;63121;51.458;-0.110;2023-05-24T12:27:45;10.20;;;2.58;;
74614;SDS011;63121;51.458;-0.110;2023-05-24T12:30:22;9.85;;;2.47;;
74614;SDS011;63121;51.458;-0.110;2023-05-24T12:32:49;13.18;;;2.40;;
74614;SDS011;63121;51.458;-0.110;2023-05-24T12:35:16;11.65;;;2.60;;
74614;SDS011;63121;51.458;-0.110;2023-05-24T12:37:42;8.90;;;2.30;;
74614;SDS011;63121;51.458;-0.110;2023-05-24T12:40:18;10.32;;;2.33;;
74614;SDS011;63121;51.458;-0.110;2023-05-24T12:45:17;8.50;;;2.60;;
74614;SDS011;63121;51.458;-0.110;2023-05-24T12:47:56;10.15;;;2.70;;
74614;SDS011;63121;51.458;-0.110;2023-05-24T12:50:26;10.57;;;2.35;;
74614;SDS011;63121;51.458;-0.110;2023-05-24T12:52:52;10.68;;;2.40;;
74614;SDS011;63121;51.458;-0.110;2023-05-24T12:55:18;9.02;;;2.38;;
74614;SDS011;63121;51.458;-0.110;2023-05-24T12:57:45;10.38;;;2.50;;
74614;SDS011;63121;51.458;-0.110;2023-05-24T13:00:17;10.13;;;2.67;;
74614;SDS011;63121;51.458;-0.110;2023-05-24T13:02:45;8.38;;;2.65;;
74614;SDS011;63121;51.458;-0.110;2023-05-24T13:05:10;11.55;;;3.25;;
74614;SDS011;63121;51.458;-0.110;2023-05-24T13:07:36;10.45;;;2.92;;
74614;SDS011;63121;51.458;-0.110;2023-05-24T13:12:28;10.25;;;2.28;;
74614;SDS011;63121;51.458;-0.110;2023-05-24T13:14:53;10.30;;;3.23;;
74614;SDS011;63121;51.458;-0.110;2023-05-24T13:17:18;9.13;;;2.45;;
74614;SDS011;63121;51.458;-0.110;2023-05-24T13:19:44;10.70;;;2.97;;
74614;SDS011;63121;51.458;-0.110;2023-05-24T13:22:10;10.75;;;3.42;;
74614;SDS011;63121;51.458;-0.110;2023-05-24T13:24:36;8.90;;;2.47;;
74614;SDS011;63121;51.458;-0.110;2023-05-24T13:27:01;11.80;;;2.83;;
74614;SDS011;63121;51.458;-0.110;2023-05-24T13:29:27;11.27;;;2.80;;
74614;SDS011;63121;51.458;-0.110;2023-05-24T13:31:53;7.90;;;2.53;;
74614;SDS011;63121;51.458;-0.110;2023-05-24T13:34:19;8.55;;;3.10;;
74614;SDS011;63121;51.458;-0.110;2023-05-24T13:36:44;9.32;;;2.75;;
74614;SDS011;63121;51.458;-0.110;2023-05-24T13:39:10;8.90;;;2.63;;
74614;SDS011;63121;51.458;-0.110;2023-05-24T13:41:37;8.38;;;3.05;;
74614;SDS011;63121;51.458;-0.110;2023-05-24T13:46:28;7.47;;;2.40;;
74614;SDS011;63121;51.458;-0.110;2023-05-24T13:48:54;9.20;;;2.85;;
74614;SDS011;63121;51.458;-0.110;2023-05-24T13:53:46;10.45;;;2.80;;
74614;SDS011;63121;51.458;-0.110;2023-05-24T13:56:12;10.55;;;3.05;;
74614;SDS011;63121;51.458;-0.110;2023-05-24T13:58:38;9.75;;;2.80;;
74614;SDS011;63121;51.458;-0.110;2023-05-24T14:01:03;11.05;;;3.17;;
74614;SDS011;63121;51.458;-0.110;2023-05-24T14:03:29;12.32;;;3.40;;
74614;SDS011;63121;51.458;-0.110;2023-05-24T14:05:54;10.67;;;3.13;;
74614;SDS011;63121;51.458;-0.110;2023-05-24T14:08:20;10.45;;;3.17;;
74614;SDS011;63121;51.458;-0.110;2023-05-24T14:10:45;8.77;;;2.60;;
74614;SDS011;63121;51.458;-0.110;2023-05-24T14:13:13;9.13;;;3.00;;
74614;SDS011;63121;51.458;-0.110;2023-05-24T14:15:39;11.95;;;2.75;;
74614;SDS011;63121;51.458;-0.110;2023-05-24T14:18:05;10.02;;;2.72;;
74614;SDS011;63121;51.458;-0.110;2023-05-24T14:20:32;11.13;;;3.58;;
74614;SDS011;63121;51.458;-0.110;2023-05-24T14:22:58;12.48;;;3.40;;
74614;SDS011;63121;51.458;-0.110;2023-05-24T14:25:23;9.25;;;2.90;;
74614;SDS011;63121;51.458;-0.110;2023-05-24T14:27:49;8.50;;;2.50;;
74614;SDS011;63121;51.458;-0.110;2023-05-24T14:30:14;11.45;;;3.15;;
74614;SDS011;63121;51.458;-0.110;2023-05-24T14:32:39;10.25;;;3.10;;
74614;SDS011;63121;51.458;-0.110;2023-05-24T14:35:05;9.50;;;2.92;;
74614;SDS011;63121;51.458;-0.110;2023-05-24T14:37:30;9.30;;;2.75;;
74614;SDS011;63121;51.458;-0.110;2023-05-24T14:39:56;8.93;;;2.80;;
74614;SDS011;63121;51.458;-0.110;2023-05-24T14:42:21;11.40;;;3.50;;
74614;SDS011;63121;51.458;-0.110;2023-05-24T14:44:47;9.37;;;2.93;;
74614;SDS011;63121;51.458;-0.110;2023-05-24T14:47:12;11.20;;;3.10;;
74614;SDS011;63121;51.458;-0.110;2023-05-24T14:49:37;9.20;;;3.10;;
74614;SDS011;63121;51.458;-0.110;2023-05-24T14:52:03;9.17;;;3.30;;
74614;SDS011;63121;51.458;-0.110;2023-05-24T14:54:28;8.75;;;3.35;;
74614;SDS011;63121;51.458;-0.110;2023-05-24T14:56:54;11.65;;;3.40;;
74614;SDS011;63121;51.458;-0.110;2023-05-24T14:59:19;10.35;;;3.20;;
74614;SDS011;63121;51.458;-0.110;2023-05-24T15:01:44;11.70;;;3.57;;
74614;SDS011;63121;51.458;-0.110;2023-05-24T15:04:10;8.93;;;3.20;;
74614;SDS011;63121;51.458;-0.110;2023-05-24T15:06:35;10.93;;;2.92;;
74614;SDS011;63121;51.458;-0.110;2023-05-24T15:09:01;11.27;;;3.03;;
74614;SDS011;63121;51.458;-0.110;2023-05-24T15:11:28;10.63;;;2.95;;
74614;SDS011;63121;51.458;-0.110;2023-05-24T15:13:53;9.20;;;3.15;;
74614;SDS011;63121;51.458;-0.110;2023-05-24T15:16:22;10.60;;;3.00;;
74614;SDS011;63121;51.458;-0.110;2023-05-24T15:18:48;11.68;;;3.63;;